Time;durP1;ratioP1;P1;durP2;ratioP2;P2;SDS_P1;SDS_P2;PMS_P1;PMS_P2;Temp;Humidity;BMP_temperature;BMP_pressure;BME280_temperature;BME280_humidity;BME280_pressure;Samples;Min_cycle;Max_cycle;Signal;HPM_P1;HPM_P2
2022/03/10 00:01:21;;;;;;;61.73;24.50;;;;;;;0.62;100.00;100298.59;5087527;28;20052;-75
2022/03/10 00:03:47;;;;;;;58.50;25.27;;;;;;;0.43;100.00;100256.25;5090735;28;20021;-75
2022/03/10 00:06:13;;;;;;;58.53;24.23;;;;;;;0.51;100.00;100269.69;5082377;28;20036;-77
2022/03/10 00:08:38;;;;;;;57.40;24.40;;;;;;;0.69;100.00;100279.09;5086376;28;20326;-78
2022/03/10 00:11:04;;;;;;;56.30;23.17;;;;;;;0.65;100.00;100288.00;5089719;28;20216;-78
2022/03/10 00:13:30;;;;;;;62.57;23.47;;;;;;;0.70;100.00;100291.19;5088879;28;20035;-75
2022/03/10 00:15:57;;;;;;;54.37;23.30;;;;;;;0.58;100.00;100269.25;5087012;28;20130;-77
2022/03/10 00:18:23;;;;;;;49.93;21.53;;;;;;;0.61;100.00;100266.50;5087314;28;20087;-77
2022/03/10 00:20:48;;;;;;;48.03;20.63;;;;;;;0.38;100.00;100256.50;5090576;28;20127;-78
2022/03/10 00:23:14;;;;;;;46.97;20.07;;;;;;;0.62;100.00;100280.34;5098502;28;20036;-76
2022/03/10 00:25:39;;;;;;;39.33;17.70;;;;;;;0.76;98.37;100288.25;5090523;28;20090;-75
2022/03/10 00:28:04;;;;;;;40.03;16.73;;;;;;;0.82;93.93;100295.72;5092532;28;20031;-77
2022/03/10 00:30:30;;;;;;;37.53;15.43;;;;;;;0.94;93.38;100297.63;5094217;28;20043;-78
2022/03/10 00:32:56;;;;;;;42.43;17.13;;;;;;;0.93;93.70;100282.06;5092473;28;20039;-78
2022/03/10 00:35:23;;;;;;;35.70;16.13;;;;;;;0.99;95.62;100286.94;5091007;28;20045;-75
2022/03/10 00:37:49;;;;;;;37.97;15.20;;;;;;;0.77;94.34;100284.72;5093022;28;20036;-77
2022/03/10 00:40:16;;;;;;;30.17;14.97;;;;;;;0.85;93.12;100281.66;5093578;28;20028;-78
2022/03/10 00:42:42;;;;;;;34.23;14.27;;;;;;;1.00;92.49;100280.78;5088714;28;20035;-78
2022/03/10 00:45:09;;;;;;;32.07;13.27;;;;;;;1.03;90.40;100282.38;5090697;28;20330;-76
2022/03/10 00:47:35;;;;;;;29.77;13.90;;;;;;;1.13;90.71;100275.72;5094084;28;20024;-80
2022/03/10 00:50:02;;;;;;;27.07;12.63;;;;;;;1.08;87.61;100291.66;5087994;28;20052;-79
2022/03/10 00:52:27;;;;;;;30.27;12.87;;;;;;;1.18;87.86;100281.53;5089852;28;20016;-80
2022/03/10 00:54:53;;;;;;;33.23;13.07;;;;;;;1.41;88.87;100288.00;5093379;28;20191;-79
2022/03/10 00:57:19;;;;;;;34.37;12.23;;;;;;;1.23;87.56;100271.66;5089327;28;20043;-80
2022/03/10 00:59:45;;;;;;;27.47;12.30;;;;;;;1.23;87.97;100256.00;5088533;28;20033;-76
2022/03/10 01:02:10;;;;;;;30.57;11.60;;;;;;;1.06;88.33;100279.63;5092129;28;20326;-75
2022/03/10 01:04:36;;;;;;;24.43;10.93;;;;;;;0.95;88.94;100246.31;5093628;28;20219;-77
2022/03/10 01:07:01;;;;;;;25.37;10.67;;;;;;;1.14;87.78;100269.59;5088289;28;20333;-78
2022/03/10 01:09:27;;;;;;;24.33;9.93;;;;;;;0.72;88.24;100231.16;5090004;28;20345;-78
2022/03/10 01:11:52;;;;;;;21.10;9.77;;;;;;;1.09;88.00;100255.97;5092169;28;20032;-76
2022/03/10 01:14:18;;;;;;;17.60;8.77;;;;;;;0.89;85.35;100247.50;5094893;28;20070;-75
2022/03/10 01:16:43;;;;;;;18.90;9.47;;;;;;;1.00;84.55;100257.31;5090234;28;20032;-77
2022/03/10 01:19:10;;;;;;;22.07;8.93;;;;;;;0.93;82.99;100240.34;5090901;28;20028;-77
2022/03/10 01:21:35;;;;;;;23.67;9.60;;;;;;;1.09;83.72;100264.63;5089971;28;20032;-77
2022/03/10 01:24:01;;;;;;;19.10;8.83;;;;;;;1.01;83.29;100258.16;5094782;28;20028;-75
2022/03/10 01:26:26;;;;;;;19.57;9.60;;;;;;;1.03;83.61;100256.28;5090018;28;20039;-75
2022/03/10 01:28:52;;;;;;;20.03;10.00;;;;;;;1.11;84.48;100239.31;5091472;28;20100;-78
2022/03/10 01:31:18;;;;;;;20.60;9.90;;;;;;;1.39;84.10;100262.00;5092485;28;20099;-78
2022/03/10 01:33:43;;;;;;;22.60;10.67;;;;;;;1.41;84.48;100267.97;5087967;28;20043;-78
2022/03/10 01:36:09;;;;;;;23.10;10.60;;;;;;;1.56;83.69;100254.00;5088905;28;20028;-77
2022/03/10 01:38:39;;;;;;;16.27;8.30;;;;;;;1.40;79.65;100260.22;5090547;28;20109;-75
2022/03/10 01:41:07;;;;;;;14.17;6.33;;;;;;;1.11;78.00;100254.94;5088454;28;20024;-75
2022/03/10 01:43:34;;;;;;;14.90;7.07;;;;;;;1.09;77.85;100256.81;5088937;28;20043;-78
2022/03/10 01:46:02;;;;;;;14.97;7.20;;;;;;;1.10;78.67;100232.41;5089681;28;20077;-78
2022/03/10 01:48:27;;;;;;;16.03;7.30;;;;;;;0.96;79.09;100253.22;5091437;28;20315;-75
2022/03/10 01:50:53;;;;;;;14.83;7.13;;;;;;;0.68;75.74;100216.63;5086724;28;20043;-77
2022/03/10 01:53:18;;;;;;;16.67;6.87;;;;;;;0.86;76.54;100259.88;5088219;28;20020;-78
2022/03/10 01:55:45;;;;;;;11.47;6.00;;;;;;;0.90;75.71;100256.16;5090939;28;20086;-78
2022/03/10 01:58:11;;;;;;;12.40;6.47;;;;;;;0.91;76.01;100260.47;5085688;28;20031;-78
2022/03/10 02:00:36;;;;;;;14.63;6.40;;;;;;;1.02;74.20;100268.50;5088617;28;20040;-75
2022/03/10 02:03:02;;;;;;;14.13;6.13;;;;;;;0.82;74.45;100258.38;5090942;28;20043;-75
2022/03/10 02:05:30;;;;;;;12.73;6.10;;;;;;;0.75;74.89;100254.44;5089353;28;20378;-78
2022/03/10 02:10:42;;;;;;;12.05;6.65;;;;;;;1.04;76.37;100264.06;5089934;28;20218;-78
2022/03/10 02:13:07;;;;;;;13.33;7.03;;;;;;;0.87;77.05;100258.94;5090473;28;20029;-75
2022/03/10 02:18:19;;;;;;;19.67;7.53;;;;;;;0.90;78.66;100261.38;5091165;28;20027;-77
2022/03/10 02:20:45;;;;;;;14.63;6.93;;;;;;;0.77;78.33;100270.84;5089394;28;20327;-78
2022/03/10 02:23:11;;;;;;;11.23;6.50;;;;;;;0.75;78.41;100272.69;5092365;28;20026;-75
2022/03/10 02:25:38;;;;;;;14.97;6.90;;;;;;;0.85;77.75;100266.88;5086823;28;20042;-75
2022/03/10 02:28:04;;;;;;;16.63;7.63;;;;;;;0.86;77.93;100252.06;5094204;28;20137;-77
2022/03/10 02:30:31;;;;;;;14.00;7.17;;;;;;;0.94;77.11;100279.38;5090679;28;20095;-78
2022/03/10 02:33:00;;;;;;;15.57;7.67;;;;;;;1.02;78.91;100271.09;5086212;28;20269;-78
2022/03/10 02:35:27;;;;;;;14.50;7.10;;;;;;;1.21;78.45;100271.75;5087210;28;20032;-78
2022/03/10 02:37:52;;;;;;;12.90;6.60;;;;;;;1.23;77.72;100269.03;5087954;28;20210;-75
2022/03/10 02:40:18;;;;;;;13.70;7.13;;;;;;;1.09;77.74;100266.41;5091025;28;20040;-77
2022/03/10 02:42:43;;;;;;;11.23;6.27;;;;;;;1.15;77.86;100260.84;5092784;28;20059;-77
2022/03/10 02:45:10;;;;;;;15.50;6.50;;;;;;;1.27;77.44;100267.94;5086726;28;20379;-77
2022/03/10 02:47:36;;;;;;;15.70;7.80;;;;;;;1.48;76.58;100274.50;5089564;28;20032;-75
2022/03/10 02:50:06;;;;;;;14.13;7.20;;;;;;;1.10;77.66;100278.53;5090179;28;20102;-75
2022/03/10 02:52:34;;;;;;;13.97;7.60;;;;;;;0.97;78.44;100265.31;5086476;28;20101;-77
2022/03/10 02:54:59;;;;;;;16.27;7.73;;;;;;;1.05;78.02;100270.97;5088316;28;20028;-77
2022/03/10 02:57:27;;;;;;;15.03;7.60;;;;;;;0.63;78.08;100266.41;5089669;28;20025;-77
2022/03/10 02:59:53;;;;;;;15.80;7.43;;;;;;;0.80;79.27;100278.47;5091245;28;20318;-78
2022/03/10 03:02:18;;;;;;;14.80;7.77;;;;;;;1.02;78.28;100276.31;5088367;28;20146;-78
2022/03/10 03:04:44;;;;;;;14.53;7.70;;;;;;;1.16;77.65;100299.03;5088559;28;20036;-75
2022/03/10 03:07:09;;;;;;;14.87;7.60;;;;;;;1.00;77.34;100298.19;5088665;28;20048;-75
2022/03/10 03:09:35;;;;;;;13.67;6.83;;;;;;;0.98;77.41;100292.22;5092070;28;20099;-77
2022/03/10 03:12:01;;;;;;;11.47;6.87;;;;;;;0.82;78.49;100297.47;5085659;28;20095;-78
2022/03/10 03:14:27;;;;;;;13.83;6.73;;;;;;;0.81;78.42;100298.41;5088449;28;20228;-75
2022/03/10 03:16:57;;;;;;;12.30;6.27;;;;;;;0.84;78.05;100293.03;5090260;28;20036;-75
2022/03/10 03:19:23;;;;;;;13.10;6.80;;;;;;;0.89;76.54;100294.44;5088205;28;20024;-78
2022/03/10 03:21:49;;;;;;;14.97;7.37;;;;;;;1.28;77.41;100299.16;5086430;28;20454;-78
2022/03/10 03:24:14;;;;;;;14.73;7.47;;;;;;;1.38;75.88;100294.22;5087715;28;20032;-75
2022/03/10 03:26:40;;;;;;;13.23;6.87;;;;;;;1.51;76.94;100289.97;5090757;28;20350;-75
2022/03/10 03:29:07;;;;;;;14.33;7.37;;;;;;;1.30;77.01;100295.63;5089667;28;20032;-78
2022/03/10 03:31:32;;;;;;;14.67;7.33;;;;;;;1.19;76.58;100299.69;5086452;28;20222;-78
2022/03/10 03:33:58;;;;;;;15.43;7.23;;;;;;;1.07;76.36;100302.16;5088116;28;20031;-78
2022/03/10 03:36:23;;;;;;;11.90;6.37;;;;;;;0.81;76.82;100303.63;5091501;28;20039;-75
2022/03/10 03:38:49;;;;;;;15.07;7.33;;;;;;;0.80;74.62;100304.53;5095256;28;20027;-77
2022/03/10 03:41:14;;;;;;;14.60;7.80;;;;;;;0.47;73.42;100257.75;5086046;28;20100;-77
2022/03/10 03:43:40;;;;;;;14.50;6.40;;;;;;;0.61;76.13;100307.34;5089567;28;20043;-77
2022/03/10 03:46:05;;;;;;;12.40;6.67;;;;;;;0.47;77.59;100305.50;5091111;28;20048;-75
2022/03/10 03:48:31;;;;;;;15.63;6.77;;;;;;;0.63;77.00;100311.53;5085564;28;20059;-75
2022/03/10 03:50:56;;;;;;;14.23;6.67;;;;;;;0.58;76.19;100307.50;5087482;28;20032;-77
2022/03/10 03:53:22;;;;;;;12.63;6.30;;;;;;;0.30;73.92;100288.19;5087846;28;20029;-78
2022/03/10 03:55:48;;;;;;;12.70;6.20;;;;;;;0.31;77.52;100318.53;5093008;28;20044;-78
2022/03/10 03:58:13;;;;;;;12.80;6.53;;;;;;;0.20;78.01;100301.81;5099495;28;20099;-78
2022/03/10 04:00:39;;;;;;;10.43;6.33;;;;;;;0.51;76.76;100325.25;5090196;28;20269;-75
2022/03/10 04:03:10;;;;;;;10.53;5.50;;;;;;;0.40;74.64;100304.16;5093335;28;20047;-76
2022/03/10 04:05:37;;;;;;;9.60;5.80;;;;;;;0.68;74.27;100323.47;5093307;28;20077;-78
2022/03/10 04:08:04;;;;;;;10.47;5.87;;;;;;;0.61;73.74;100322.97;5086302;28;21093;-76
2022/03/10 04:10:30;;;;;;;16.70;6.77;;;;;;;0.30;74.34;100326.44;5091804;28;20020;-75
2022/03/10 04:12:55;;;;;;;10.57;6.10;;;;;;;0.49;76.70;100327.09;5096300;28;20313;-77
2022/03/10 04:15:21;;;;;;;16.53;7.77;;;;;;;0.50;76.10;100336.59;5098234;28;20024;-77
2022/03/10 04:17:46;;;;;;;14.43;7.40;;;;;;;0.46;77.39;100311.63;5085290;28;20088;-77
2022/03/10 04:20:13;;;;;;;15.33;7.20;;;;;;;0.34;75.14;100330.53;5090118;28;20271;-78
2022/03/10 04:22:39;;;;;;;12.17;5.93;;;;;;;0.25;74.30;100307.59;5088874;28;20052;-75
2022/03/10 04:25:06;;;;;;;12.57;6.40;;;;;;;0.26;74.49;100346.59;5089339;28;20042;-75
2022/03/10 04:27:32;;;;;;;11.70;6.23;;;;;;;0.19;75.64;100344.38;5095712;28;20230;-77
2022/03/10 04:29:57;;;;;;;13.03;6.57;;;;;;;0.19;75.68;100349.59;5092619;28;20083;-78
2022/03/10 04:32:23;;;;;;;14.17;7.10;;;;;;;0.06;75.63;100336.38;5086925;28;20036;-75
2022/03/10 04:34:49;;;;;;;12.87;6.50;;;;;;;0.06;76.50;100339.00;5089793;28;20036;-75
2022/03/10 04:37:14;;;;;;;16.47;7.63;;;;;;;0.22;75.91;100355.47;5087654;28;20050;-77
2022/03/10 04:39:40;;;;;;;14.93;8.00;;;;;;;0.14;74.91;100349.00;5098514;28;20077;-78
2022/03/10 04:42:05;;;;;;;14.40;7.83;;;;;;;0.27;74.99;100368.25;5091745;28;20302;-75
2022/03/10 04:44:31;;;;;;;14.97;8.60;;;;;;;0.33;74.48;100370.53;5088009;28;20306;-75
2022/03/10 04:46:56;;;;;;;16.30;8.27;;;;;;;0.25;74.75;100334.47;5092603;28;20241;-77
2022/03/10 04:49:22;;;;;;;12.40;7.40;;;;;;;0.27;73.49;100361.28;5091693;28;20047;-77
2022/03/10 04:51:47;;;;;;;13.93;7.23;;;;;;;0.43;72.96;100384.75;5092052;28;20330;-75
2022/03/10 04:54:13;;;;;;;10.80;6.70;;;;;;;0.34;73.54;100377.44;5088660;28;20235;-75
2022/03/10 04:56:38;;;;;;;13.17;6.60;;;;;;;0.09;71.67;100388.31;5085486;28;20346;-77
2022/03/10 04:59:04;;;;;;;19.13;9.37;;;;;;;0.15;72.89;100393.19;5095210;28;20032;-77
2022/03/10 05:01:30;;;;;;;17.10;8.93;;;;;;;0.41;72.29;100391.81;5087827;28;20226;-76
2022/03/10 05:03:55;;;;;;;18.20;9.37;;;;;;;0.40;71.73;100390.13;5091110;28;20036;-75
2022/03/10 05:06:22;;;;;;;18.43;9.57;;;;;;;0.78;72.49;100408.06;5088800;28;20108;-77
2022/03/10 05:08:47;;;;;;;11.03;6.50;;;;;;;0.61;73.92;100411.59;5089231;28;20021;-77
2022/03/10 05:11:13;;;;;;;15.70;7.90;;;;;;;0.14;75.65;100373.28;5090868;28;20077;-77
2022/03/10 05:13:39;;;;;;;18.93;8.20;;;;;;;-0.18;76.74;100395.75;5094694;28;20032;-78
2022/03/10 05:16:04;;;;;;;16.77;7.77;;;;;;;-0.05;76.94;100412.41;5086929;28;20219;-75
2022/03/10 05:18:30;;;;;;;20.77;8.03;;;;;;;0.02;76.19;100391.31;5095072;28;20075;-75
2022/03/10 05:20:55;;;;;;;13.47;7.10;;;;;;;0.25;74.09;100401.38;5090968;28;20062;-77
2022/03/10 05:23:21;;;;;;;13.83;7.20;;;;;;;0.76;74.01;100404.69;5093134;28;20051;-78
2022/03/10 05:25:47;;;;;;;14.17;8.27;;;;;;;1.16;72.01;100395.53;5094492;28;20223;-78
2022/03/10 05:28:15;;;;;;;13.73;7.83;;;;;;;1.33;71.23;100421.50;5090898;28;20095;-75
2022/03/10 05:30:42;;;;;;;9.77;5.80;;;;;;;1.17;71.30;100424.13;5091420;28;20225;-77
2022/03/10 05:33:12;;;;;;;10.93;6.27;;;;;;;1.57;69.45;100421.88;5088226;28;20035;-78
2022/03/10 05:35:38;;;;;;;12.00;6.20;;;;;;;1.67;69.61;100433.47;5093322;28;20048;-78
2022/03/10 05:38:04;;;;;;;12.93;5.90;;;;;;;1.72;69.58;100430.59;5085811;28;20063;-78
2022/03/10 05:40:30;;;;;;;10.33;5.73;;;;;;;1.91;69.72;100439.03;5086382;28;20071;-75
2022/03/10 05:42:56;;;;;;;10.00;5.70;;;;;;;1.80;69.36;100424.00;5089962;28;20334;-75
2022/03/10 05:45:23;;;;;;;12.30;6.17;;;;;;;1.89;70.55;100433.06;5093878;28;20280;-78
2022/03/10 05:47:50;;;;;;;9.97;5.77;;;;;;;2.00;70.44;100432.41;5093388;28;20035;-77
2022/03/10 05:50:17;;;;;;;10.73;5.63;;;;;;;2.12;69.79;100442.19;5087399;28;20047;-73
2022/03/10 05:52:43;;;;;;;10.50;6.00;;;;;;;2.29;68.91;100442.00;5089088;28;20059;-75
2022/03/10 05:55:08;;;;;;;13.80;5.67;;;;;;;2.56;67.00;100442.09;5090615;28;20048;-77
2022/03/10 05:57:34;;;;;;;11.47;6.00;;;;;;;2.37;66.42;100428.47;5092231;28;20048;-78
2022/03/10 06:00:00;;;;;;;12.93;6.43;;;;;;;2.40;67.46;100426.50;5096776;28;20284;-78
2022/03/10 06:02:25;;;;;;;9.87;5.27;;;;;;;2.96;66.22;100443.06;5089490;28;20048;-79
2022/03/10 06:04:51;;;;;;;9.73;5.57;;;;;;;3.47;63.87;100448.56;5090709;28;20234;-75
2022/03/10 06:07:16;;;;;;;10.07;5.73;;;;;;;3.68;62.17;100454.16;5092403;28;20067;-76
2022/03/10 06:09:42;;;;;;;10.80;6.77;;;;;;;3.66;61.58;100438.56;5087418;28;20507;-78
2022/03/10 06:12:09;;;;;;;23.00;10.10;;;;;;;3.59;62.50;100457.38;5087859;28;20107;-79
2022/03/10 06:14:35;;;;;;;22.63;9.43;;;;;;;3.87;61.56;100453.78;5089097;28;20105;-76
2022/03/10 06:17:02;;;;;;;11.70;6.70;;;;;;;3.80;61.41;100414.91;5091971;28;20055;-76
2022/03/10 06:19:27;;;;;;;17.83;8.13;;;;;;;4.02;60.04;100450.97;5088060;28;20067;-78
2022/03/10 06:21:53;;;;;;;12.80;6.77;;;;;;;4.08;60.33;100453.19;5089012;28;20095;-79
2022/03/10 06:24:18;;;;;;;20.37;9.00;;;;;;;4.75;61.35;100452.97;5090408;28;20025;-79
2022/03/10 06:26:44;;;;;;;20.23;9.63;;;;;;;5.04;58.46;100470.13;5091244;28;20035;-79
2022/03/10 06:29:10;;;;;;;14.77;7.60;;;;;;;5.14;58.16;100455.41;5087469;28;20214;-79
2022/03/10 06:31:35;;;;;;;13.53;7.33;;;;;;;4.49;60.30;100460.03;5088901;28;20040;-76
2022/03/10 06:34:01;;;;;;;12.80;7.37;;;;;;;4.57;63.15;100447.25;5090544;28;20024;-76
2022/03/10 06:36:27;;;;;;;14.77;8.10;;;;;;;4.96;61.74;100456.72;5095010;28;20345;-79
2022/03/10 06:38:55;;;;;;;15.87;9.47;;;;;;;5.10;62.20;100477.56;5088397;28;20036;-79
2022/03/10 06:41:21;;;;;;;16.45;8.98;;;;;;;5.56;62.42;100455.88;5086935;28;20047;-79
2022/03/10 06:43:46;;;;;;;15.27;8.90;;;;;;;5.66;62.29;100475.28;5089747;28;20044;-79
2022/03/10 06:46:12;;;;;;;15.80;8.97;;;;;;;5.10;62.98;100472.31;5086371;28;20044;-80
2022/03/10 06:48:37;;;;;;;25.67;11.83;;;;;;;4.98;63.63;100472.34;5086965;28;20260;-76
2022/03/10 06:51:04;;;;;;;33.55;14.02;;;;;;;5.33;63.98;100451.47;5087073;28;20052;-76
2022/03/10 06:53:30;;;;;;;19.92;10.25;;;;;;;5.51;64.66;100481.66;5086012;28;20028;-79
2022/03/10 06:55:55;;;;;;;22.92;11.30;;;;;;;6.04;63.03;100493.50;5085189;28;20068;-80
2022/03/10 06:58:21;;;;;;;39.72;13.85;;;;;;;5.55;64.73;100487.53;5089195;28;20089;-76
2022/03/10 07:00:46;;;;;;;32.30;11.23;;;;;;;5.30;63.83;100485.84;5087450;28;20043;-76
2022/03/10 07:03:12;;;;;;;21.95;11.00;;;;;;;4.86;63.88;100473.22;5088391;28;20244;-79
2022/03/10 07:05:38;;;;;;;35.72;12.95;;;;;;;5.26;64.10;100493.09;5086836;28;20033;-79
2022/03/10 07:08:04;;;;;;;18.67;9.05;;;;;;;5.20;64.46;100469.91;5086111;28;20099;-79
2022/03/10 07:10:29;;;;;;;20.48;9.30;;;;;;;5.25;63.82;100491.41;5086640;28;20203;-79
2022/03/10 07:12:55;;;;;;;16.33;8.95;;;;;;;5.31;62.39;100490.97;5091481;28;20095;-79
2022/03/10 07:15:21;;;;;;;23.93;16.57;;;;;;;5.29;63.34;100490.25;5095790;28;20322;-79
2022/03/10 07:17:46;;;;;;;13.70;8.07;;;;;;;6.01;62.18;100498.13;5119250;28;20027;-79
2022/03/10 07:20:14;;;;;;;12.60;7.75;;;;;;;6.18;61.98;100476.69;5084677;28;20020;-76
2022/03/10 07:22:40;;;;;;;14.85;7.57;;;;;;;6.65;57.92;100485.38;5085663;28;20058;-76
2022/03/10 07:25:08;;;;;;;20.30;9.50;;;;;;;7.17;56.98;100486.53;5087830;28;20024;-79
2022/03/10 07:27:35;;;;;;;16.98;7.80;;;;;;;6.55;58.08;100487.03;5094109;28;20033;-79
2022/03/10 07:30:00;;;;;;;11.70;7.13;;;;;;;7.02;56.93;100485.97;5089513;28;20032;-76
2022/03/10 07:32:26;;;;;;;12.20;6.60;;;;;;;6.93;54.75;100455.09;5090318;28;20028;-77
2022/03/10 07:34:52;;;;;;;17.02;7.75;;;;;;;6.79;56.38;100471.97;5091751;28;20348;-79
2022/03/10 07:37:17;;;;;;;11.35;6.75;;;;;;;6.88;55.89;100476.53;5092410;28;20021;-79
2022/03/10 07:39:43;;;;;;;10.15;6.72;;;;;;;6.66;54.36;100469.47;5094899;28;20280;-79
2022/03/10 07:42:09;;;;;;;9.27;5.80;;;;;;;6.79;54.74;100464.09;5090583;28;20040;-80
2022/03/10 07:44:34;;;;;;;13.18;6.05;;;;;;;6.54;54.17;100465.16;5089545;28;20015;-79
2022/03/10 07:47:00;;;;;;;12.00;5.82;;;;;;;5.85;53.66;100459.00;5095651;28;20028;-79
2022/03/10 07:49:25;;;;;;;13.35;6.90;;;;;;;6.24;57.26;100470.97;5096544;28;20023;-79
2022/03/10 07:51:50;;;;;;;10.50;5.68;;;;;;;6.61;55.45;100460.25;5097982;28;20024;-79
2022/03/10 07:54:16;;;;;;;10.85;5.60;;;;;;;6.69;51.99;100471.88;5095792;28;20035;-76
2022/03/10 07:56:41;;;;;;;9.60;5.53;;;;;;;6.86;53.19;100467.06;5097681;28;20032;-76
2022/03/10 07:59:07;;;;;;;22.17;8.07;;;;;;;6.19;53.01;100473.09;5096760;28;20039;-79
2022/03/10 08:01:33;;;;;;;12.68;6.78;;;;;;;6.75;55.08;100467.06;5097502;28;20036;-79
2022/03/10 08:03:58;;;;;;;11.45;6.60;;;;;;;6.68;52.76;100454.41;5096195;28;20036;-78
2022/03/10 08:06:26;;;;;;;8.13;5.22;;;;;;;7.01;51.17;100465.84;5096468;28;20034;-77
2022/03/10 08:08:51;;;;;;;11.15;4.68;;;;;;;7.28;48.08;100465.44;5097853;28;20288;-79
2022/03/10 08:11:16;;;;;;;13.45;6.65;;;;;;;7.26;47.91;100475.28;5096182;28;20027;-79
2022/03/10 08:13:42;;;;;;;12.00;5.60;;;;;;;7.89;47.59;100468.38;5097474;28;20028;-79
2022/03/10 08:16:07;;;;;;;17.80;6.53;;;;;;;6.94;46.42;100444.44;5095653;28;20032;-79
2022/03/10 08:18:33;;;;;;;8.05;4.78;;;;;;;6.32;47.95;100470.41;5097377;28;20087;-79
2022/03/10 08:20:59;;;;;;;9.05;5.30;;;;;;;6.81;49.37;100459.53;5094998;28;20099;-79
2022/03/10 08:23:26;;;;;;;9.85;5.63;;;;;;;7.06;48.60;100468.97;5097175;28;20032;-79
2022/03/10 08:25:51;;;;;;;15.82;7.22;;;;;;;7.27;48.19;100464.63;5095190;28;20035;-79
2022/03/10 08:28:17;;;;;;;9.10;5.25;;;;;;;6.83;48.80;100464.69;5097440;28;20016;-79
2022/03/10 08:30:42;;;;;;;13.50;5.40;;;;;;;7.12;48.43;100449.22;5095595;28;20019;-77
2022/03/10 08:33:08;;;;;;;8.02;4.65;;;;;;;6.78;46.23;100464.22;5096541;28;20253;-75
2022/03/10 08:35:33;;;;;;;15.02;6.15;;;;;;;6.60;49.80;100437.53;5095162;28;20028;-78
2022/03/10 08:37:59;;;;;;;10.50;5.70;;;;;;;6.97;49.66;100473.16;5096991;28;20213;-78
2022/03/10 08:40:25;;;;;;;12.45;6.15;;;;;;;6.95;50.16;100471.63;5094839;28;20023;-79
2022/03/10 08:42:51;;;;;;;11.65;5.05;;;;;;;6.97;46.16;100474.97;5096172;28;20073;-79
2022/03/10 08:45:17;;;;;;;14.20;5.35;;;;;;;7.29;47.24;100469.78;5095182;28;20047;-77
2022/03/10 08:47:43;;;;;;;7.43;4.70;;;;;;;7.72;45.13;100464.50;5095244;28;20030;-77
2022/03/10 08:50:10;;;;;;;8.07;4.85;;;;;;;8.20;47.47;100466.66;5096573;28;20389;-79
2022/03/10 08:52:37;;;;;;;9.77;4.90;;;;;;;8.11;48.93;100476.19;5095914;28;20073;-80
2022/03/10 08:55:05;;;;;;;9.77;6.35;;;;;;;7.76;48.32;100473.84;5097237;28;20068;-80
2022/03/10 08:57:31;;;;;;;11.30;5.68;;;;;;;7.41;49.86;100470.59;5094676;28;20103;-80
2022/03/10 08:59:56;;;;;;;10.60;6.13;;;;;;;7.20;47.92;100473.13;5097142;28;20032;-79
2022/03/10 09:02:21;;;;;;;9.23;5.32;;;;;;;6.55;49.39;100473.88;5095083;28;20024;-79
2022/03/10 09:04:47;;;;;;;8.10;4.65;;;;;;;6.18;49.87;100466.16;5097577;28;20191;-77
2022/03/10 09:07:12;;;;;;;6.05;4.40;;;;;;;6.36;51.00;100469.22;5094373;28;20036;-76
2022/03/10 09:09:38;;;;;;;7.68;4.32;;;;;;;6.58;50.25;100471.84;5096919;28;20032;-79
2022/03/10 09:12:04;;;;;;;8.45;4.28;;;;;;;6.51;47.98;100462.78;5094556;28;20090;-79
2022/03/10 09:14:29;;;;;;;10.70;5.32;;;;;;;5.97;50.89;100471.25;5095825;28;20019;-79
2022/03/10 09:16:55;;;;;;;8.43;4.45;;;;;;;6.59;49.50;100472.69;5095797;28;20031;-79
2022/03/10 09:19:20;;;;;;;5.75;4.07;;;;;;;6.59;47.23;100470.06;5099209;28;20028;-79
2022/03/10 09:21:46;;;;;;;7.20;4.40;;;;;;;6.59;47.47;100456.91;5100800;28;20067;-79
2022/03/10 09:24:12;;;;;;;8.18;4.88;;;;;;;6.77;47.35;100473.06;5101497;28;20361;-79
2022/03/10 09:26:40;;;;;;;10.63;4.63;;;;;;;6.72;46.49;100466.34;5099232;28;20043;-79
2022/03/10 09:29:06;;;;;;;7.07;4.45;;;;;;;6.51;47.97;100462.78;5100638;28;20049;-77
2022/03/10 09:31:32;;;;;;;8.57;3.80;;;;;;;6.17;46.21;100474.16;5101356;28;20032;-77
2022/03/10 09:33:57;;;;;;;7.63;4.45;;;;;;;6.37;48.66;100470.88;5101544;28;20031;-79
2022/03/10 09:36:26;;;;;;;7.88;4.50;;;;;;;6.99;48.21;100465.97;5099847;28;20345;-80
2022/03/10 09:38:54;;;;;;;13.57;5.88;;;;;;;7.32;47.07;100472.19;5100270;28;20242;-80
2022/03/10 09:41:20;;;;;;;8.80;4.22;;;;;;;6.19;45.40;100464.38;5100957;28;20077;-77
2022/03/10 09:43:47;;;;;;;7.22;3.42;;;;;;;6.07;44.34;100482.75;5100085;28;20024;-78
2022/03/10 09:46:13;;;;;;;6.35;3.60;;;;;;;6.18;45.45;100460.91;5101458;28;20381;-79
2022/03/10 09:48:39;;;;;;;9.85;4.45;;;;;;;5.84;47.82;100472.25;5098190;28;20069;-80
2022/03/10 09:51:06;;;;;;;8.32;4.07;;;;;;;5.94;47.09;100468.84;5100691;28;20339;-79
2022/03/10 09:53:34;;;;;;;5.80;3.53;;;;;;;5.82;45.53;100482.03;5099717;28;20082;-79
2022/03/10 09:56:00;;;;;;;10.15;5.40;;;;;;;6.00;45.35;100481.53;5099563;28;20024;-79
2022/03/10 09:58:26;;;;;;;17.33;5.07;;;;;;;6.46;46.69;100471.97;5101337;28;20023;-79
2022/03/10 10:00:58;;;;;;;7.18;3.72;;;;;;;6.57;45.34;100464.91;5098799;28;20202;-77
2022/03/10 10:03:24;;;;;;;9.73;4.00;;;;;;;6.55;46.19;100448.41;5098294;28;20077;-76
2022/03/10 10:05:49;;;;;;;12.55;4.47;;;;;;;6.45;48.61;100473.75;5098152;28;20381;-79
2022/03/10 10:08:17;;;;;;;6.32;3.78;;;;;;;5.91;46.00;100481.38;5098711;28;20028;-79
2022/03/10 10:10:50;;;;;;;12.65;6.65;;;;;;;6.01;47.46;100475.31;5099411;28;20070;-79
2022/03/10 10:13:26;;;;;;;7.57;3.92;;;;;;;6.12;45.15;100473.66;5099482;28;20040;-77
2022/03/10 10:16:01;;;;;;;10.35;4.50;;;;;;;6.34;47.46;100482.47;5099245;28;20035;-77
2022/03/10 10:18:28;;;;;;;8.02;4.20;;;;;;;5.43;49.37;100478.75;5098134;28;20130;-79
2022/03/10 10:20:55;;;;;;;10.57;4.77;;;;;;;5.38;51.67;100481.72;5100912;28;20040;-79
2022/03/10 10:23:32;;;;;;;8.63;4.22;;;;;;;5.47;51.41;100461.81;5099562;28;20044;-79
2022/03/10 10:26:03;;;;;;;14.73;5.35;;;;;;;5.98;49.64;100479.97;5099820;28;20277;-79
2022/03/10 10:28:31;;;;;;;10.30;5.10;;;;;;;6.15;50.03;100476.91;5100331;28;20043;-79
2022/03/10 10:30:58;;;;;;;10.02;4.50;;;;;;;6.56;48.10;100468.50;5098012;28;20036;-80
2022/03/10 10:33:24;;;;;;;9.55;3.83;;;;;;;6.06;50.12;100460.03;5100154;28;20040;-79
2022/03/10 10:35:50;;;;;;;8.60;4.53;;;;;;;6.07;50.30;100458.25;5099434;28;20376;-79
2022/03/10 10:38:43;;;;;;;5.55;3.53;;;;;;;6.18;48.87;100466.16;5098364;28;20066;-76
2022/03/10 10:41:18;;;;;;;6.88;4.22;;;;;;;6.25;46.89;100466.56;5098702;28;20051;-76
2022/03/10 10:43:49;;;;;;;8.73;4.95;;;;;;;6.51;49.28;100459.28;5098567;28;20036;-79
2022/03/10 10:46:41;;;;;;;9.02;4.55;;;;;;;6.66;48.68;100458.94;5098599;28;20032;-80
2022/03/10 10:49:22;;;;;;;8.60;4.10;;;;;;;6.75;47.68;100454.75;5095548;28;20043;-80
2022/03/10 10:51:53;;;;;;;11.23;4.68;;;;;;;7.03;50.26;100448.97;5098450;28;20043;-77
2022/03/10 10:54:19;;;;;;;11.00;4.63;;;;;;;6.65;46.56;100451.16;5100022;28;20039;-79
2022/03/10 10:56:46;;;;;;;9.75;4.43;;;;;;;6.94;47.18;100444.44;5098483;28;20051;-80
2022/03/10 10:59:30;;;;;;;8.40;3.60;;;;;;;7.23;46.04;100450.03;5099716;28;20290;-79
2022/03/10 11:02:10;;;;;;;7.95;3.47;;;;;;;7.07;42.85;100448.75;5099013;28;20046;-80
2022/03/10 11:04:43;;;;;;;13.60;5.72;;;;;;;6.43;40.09;100454.63;5096884;28;20032;-79
2022/03/10 11:07:10;;;;;;;6.13;3.65;;;;;;;6.42;40.42;100431.06;5097727;28;20073;-80
2022/03/10 11:09:36;;;;;;;6.85;3.92;;;;;;;5.28;49.57;100450.97;5099563;28;20043;-77
2022/03/10 11:12:03;;;;;;;16.60;5.77;;;;;;;4.99;51.94;100446.00;5099092;28;20035;-79
2022/03/10 11:14:28;;;;;;;10.03;5.40;;;;;;;4.94;53.23;100461.22;5098589;28;20036;-79
2022/03/10 11:16:55;;;;;;;6.40;3.90;;;;;;;4.47;55.38;100459.31;5097563;28;20020;-79
2022/03/10 11:19:25;;;;;;;6.40;4.07;;;;;;;4.19;57.68;100465.59;5098986;28;20032;-79
2022/03/10 11:22:08;;;;;;;5.70;3.90;;;;;;;4.31;59.04;100467.38;5099853;28;20036;-76
2022/03/10 11:25:11;;;;;;;6.67;3.67;;;;;;;4.16;62.05;100456.16;5097942;28;20047;-79
2022/03/10 11:28:11;;;;;;;7.13;4.00;;;;;;;4.01;59.49;100451.91;5098812;28;20438;-79